Date,TemperatureHighF,TemperatureAvgF,TemperatureLowF,DewpointHighF,DewpointAvgF,DewpointLowF,HumidityHigh,HumidityAvg,HumidityLow,PressureMaxIn,PressureMinIn,WindSpeedMaxMPH,WindSpeedAvgMPH,GustSpeedMaxMPH,PrecipitationSumIn
2013-1-1,25.5,6.2,-2.6,25.0,-0.1,-7.4,98,75,58,29.89,29.60,9,2,0,0.00
2013-1-2,3.6,-3.5,-12.1,-4.7,-10.8,-18.5,83,71,50,30.22,29.84,6,1,0,0.00
2013-1-3,4.5,-4.5,-15.9,-2.3,-10.9,-22.2,80,73,61,30.21,29.82,3,0,0,0.00
2013-1-4,27.1,19.4,0.7,26.7,18.6,-3.8,98,96,81,29.81,29.61,0,0,0,0.00
2013-1-5,27.3,13.0,-1.5,26.8,7.0,-5.6,98,77,51,30.23,29.66,5,0,0,0.00
2013-1-6,24.3,14.3,3.0,21.4,11.3,-1.0,98,88,74,30.14,29.86,4,0,0,0.00
2013-1-7,18.1,6.2,-8.3,13.0,1.0,-14.3,98,79,60,30.38,30.06,4,0,0,0.00
2013-1-8,33.6,27.1,14.5,32.0,26.4,14.1,98,97,89,30.34,30.05,4,1,0,0.00
2013-1-9,33.1,28.2,21.0,32.6,27.3,20.5,98,96,82,30.33,29.80,5,1,0,0.00
2013-1-10,34.7,29.9,16.9,32.0,26.1,16.4,98,86,69,30.60,29.98,8,2,0,0.00
2013-1-11,30.2,23.3,14.4,26.8,21.3,13.9,98,92,77,30.55,30.04,6,1,0,0.00
2013-1-12,34.5,31.6,27.5,34.0,31.1,27.0,98,98,98,30.08,29.99,0,0,0,0.06
2013-1-13,40.5,37.4,34.9,39.9,36.9,34.4,98,98,98,30.02,29.81,5,0,0,0.46
2013-1-14,42.6,34.5,26.1,42.1,29.6,21.4,98,83,53,30.28,29.70,7,2,0,0.27
2013-1-15,25.7,20.7,15.3,21.5,16.2,9.2,98,83,57,30.37,30.21,3,0,0,0.00
2013-1-16,31.3,22.5,12.4,27.7,18.8,11.9,98,87,60,30.20,29.66,6,1,0,0.00
2013-1-17,29.3,4.9,-14.1,28.3,-7.2,-25.2,98,58,32,30.20,29.66,12,2,0,0.00
2013-1-18,7.9,-4.7,-21.5,0.5,-16.0,-29.5,81,58,39,30.28,30.12,7,1,0,0.00
2013-1-19,23.9,15.6,4.8,23.4,13.9,0.8,98,93,83,30.10,29.63,0,0,0,0.00
2013-1-20,32.9,16.0,-4.9,32.4,11.8,-12.1,98,84,64,29.92,29.21,9,2,0,0.00
2013-1-21,6.8,-5.3,-15.5,-9.2,-14.3,-22.1,76,65,45,30.01,29.86,4,0,0,0.00
2013-1-22,5.5,-5.0,-14.4,-6.0,-13.0,-21.9,76,68,56,30.05,29.82,4,1,0,0.00
2013-1-23,-8.9,-15.8,-26.0,-21.9,-26.1,-35.2,68,59,45,30.15,30.04,5,2,0,0.00
2013-1-24,-2.2,-10.2,-16.1,-15.4,-21.1,-26.7,67,58,48,30.31,30.07,12,3,0,0.00
2013-1-25,7.0,-3.2,-12.6,-8.5,-13.3,-19.6,73,62,46,30.31,30.09,5,1,0,0.00
2013-1-26,12.9,-0.3,-17.1,1.4,-8.1,-24.2,84,69,52,30.29,30.09,5,1,0,0.00
2013-1-27,14.5,3.1,-7.1,-4.5,-8.2,-14.5,80,60,36,30.49,30.29,5,1,0,0.00
2013-1-28,17.4,10.8,3.6,13.7,4.2,-6.1,97,75,46,30.42,30.02,5,1,0,0.00
2013-1-29,26.6,19.4,7.7,23.8,17.4,5.6,98,92,70,30.18,29.86,5,1,0,0.00
2013-1-30,47.5,35.8,24.4,46.9,35.3,24.0,98,98,98,29.84,29.19,4,1,0,0.60
2013-1-31,46.0,26.7,3.4,45.5,21.9,-5.1,98,82,57,29.46,28.78,11,4,0,1.31
2013-2-1,7.2,1.5,-4.4,-4.6,-9.4,-12.5,69,59,48,30.08,29.47,8,2,0,0.00
2013-2-2,7.2,-3.4,-12.8,-1.0,-9.9,-19.5,80,73,66,30.13,30.00,4,0,0,0.00
2013-2-3,15.8,5.7,-9.9,8.0,0.6,-15.9,91,79,68,30.02,29.76,5,0,0,0.00
2013-2-4,17.4,5.5,-6.5,8.7,-2.4,-17.1,98,71,47,29.88,29.68,6,1,0,0.00
2013-2-5,11.3,-1.6,-20.7,-0.3,-12.7,-28.5,84,60,39,29.97,29.86,5,1,0,0.00
2013-2-6,16.5,5.7,-5.3,10.7,-4.6,-16.5,98,64,37,30.35,29.80,7,2,0,0.00
2013-2-7,2.5,-7.0,-18.6,-17.1,-22.8,-26.2,69,47,26,30.57,30.36,5,2,0,0.00
2013-2-8,9.0,3.6,-5.1,8.5,0.2,-22.2,98,86,41,30.43,30.13,13,7,0,0.00
2013-2-9,29.8,9.8,-3.3,28.6,6.2,-8.7,98,85,69,30.36,30.15,8,2,0,0.00
2013-2-10,34.3,8.2,-11.9,8.8,-4.6,-19.2,79,60,18,30.43,30.22,5,1,0,0.00
2013-2-11,40.5,19.2,2.5,29.7,12.8,-3.9,98,78,26,30.22,29.50,4,1,0,0.00
2013-2-12,38.7,29.9,23.9,33.8,27.7,20.9,98,92,71,29.79,29.50,5,2,0,0.00
2013-2-13,36.1,26.0,21.0,25.2,21.4,18.3,98,84,54,29.82,29.75,4,1,0,0.00
2013-2-14,33.6,27.4,22.8,26.8,22.0,18.7,98,81,62,29.91,29.77,4,0,0,0.00
2013-2-15,34.3,27.6,17.4,33.8,26.3,13.4,98,95,76,29.92,29.75,3,0,0,0.01
2013-2-16,28.8,11.9,1.0,12.8,3.2,-3.7,98,70,38,30.01,29.93,0,0,0,0.00
2013-2-17,24.1,6.0,-3.3,1.1,-4.1,-9.1,81,64,36,29.94,29.72,9,2,0,0.00
2013-2-18,26.6,7.8,-4.2,23.8,-8.8,-21.1,99,50,13,30.12,29.84,9,3,0,0.00
2013-2-19,29.1,19.0,3.7,23.4,6.5,-6.7,98,62,28,30.10,29.58,11,2,0,0.00
2013-2-20,28.2,22.1,7.0,26.3,19.8,0.8,98,91,74,29.72,29.52,0,0,0,0.00
2013-2-21,38.3,20.6,5.4,30.4,13.7,-0.9,98,75,49,30.39,29.72,0,0,0,0.02
2013-2-22,33.4,23.9,11.8,24.2,19.6,11.4,98,84,64,30.46,30.23,6,2,0,0.00
2013-2-23,28.8,25.6,21.9,28.3,25.0,20.2,98,97,90,30.23,29.87,5,2,0,0.00
2013-2-24,36.0,30.1,27.9,33.3,29.2,27.4,98,97,80,29.97,29.82,0,0,0,0.01
2013-2-25,35.6,30.6,27.0,35.1,30.0,26.5,98,98,93,30.24,29.97,3,0,0,0.07
2013-2-26,37.6,31.0,26.1,34.2,29.5,25.6,98,95,81,30.33,30.16,7,2,0,0.08
2013-2-27,33.3,30.5,29.1,31.1,27.9,23.1,98,90,70,30.15,29.71,12,7,0,0.00
2013-2-28,32.5,29.2,27.1,32.0,28.7,26.7,98,98,98,29.70,29.60,9,5,0,0.00
2013-3-1,35.2,30.1,27.1,34.5,29.3,26.7,98,97,79,29.83,29.68,6,1,0,0.02
2013-3-2,32.2,26.6,21.7,27.0,23.8,21.0,98,90,68,29.82,29.77,5,1,0,0.00
2013-3-3,38.5,25.7,19.0,28.0,22.5,18.6,98,88,64,29.78,29.68,5,1,0,0.05
2013-3-4,25.9,18.1,15.8,18.4,16.0,14.1,98,92,68,29.73,29.68,9,3,0,0.00
2013-3-6,36.9,33.3,29.5,30.4,27.6,24.2,93,80,74,30.30,30.22,11,6,0,0.00
2013-3-7,29.3,27.2,24.3,26.8,20.9,17.6,98,77,65,30.31,30.25,10,4,0,0.00
2013-3-8,44.8,30.2,20.1,23.0,20.1,17.7,98,69,34,30.39,30.27,5,1,0,0.00
2013-3-9,50.7,30.2,13.1,24.7,19.7,12.6,98,71,23,30.41,30.34,4,0,0,0.00
2013-3-10,41.7,33.1,23.0,29.5,25.0,22.5,98,74,52,30.34,30.07,5,1,0,0.00
2013-3-11,47.7,38.8,32.0,36.5,31.2,27.3,98,75,50,30.08,29.86,5,0,0,0.00
2013-3-12,43.2,37.3,32.9,42.6,36.8,32.4,98,98,98,29.86,29.75,4,0,0,0.84
2013-3-13,40.8,32.9,27.7,32.9,27.4,19.5,98,83,43,29.80,29.72,5,1,0,0.00
2013-3-14,28.2,17.4,6.3,27.7,9.2,-1.1,98,71,47,29.89,29.66,5,1,0,0.00
2013-3-15,25.3,15.9,3.4,21.8,10.1,-1.6,98,79,46,29.89,29.57,9,1,0,0.00
2013-3-16,23.7,14.1,5.4,11.7,2.6,-5.8,88,61,39,29.90,29.76,5,1,0,0.00
2013-3-17,22.8,9.9,-2.7,1.4,-7.8,-18.2,81,49,16,30.33,29.89,7,2,0,0.00
2013-3-18,27.5,11.0,-9.6,-0.3,-7.3,-16.1,77,48,21,30.44,30.12,7,2,0,0.00
2013-3-19,23.2,20.7,16.5,22.7,17.6,-2.7,98,90,38,30.11,29.73,8,2,0,0.00
2013-3-20,32.4,25.0,20.7,31.9,24.5,20.2,98,98,98,29.72,29.61,0,0,0,0.01
2013-3-21,33.6,24.9,17.8,33.1,23.2,17.3,98,94,74,29.65,29.59,0,0,0,0.00
2013-3-22,40.5,25.5,19.9,23.8,20.0,15.7,98,81,51,29.72,29.61,4,0,0,0.01
2013-3-23,37.4,27.8,19.9,23.6,20.9,19.2,97,77,53,29.82,29.66,10,3,0,0.00
2013-3-24,29.3,27.8,26.6,22.5,21.8,21.5,81,78,75,29.83,29.81,4,2,0,0.00
2013-3-27,43.0,37.5,34.3,34.4,30.1,26.8,98,76,53,29.97,29.90,4,1,0,0.00
2013-3-28,49.6,40.4,33.3,38.2,33.9,30.3,98,80,49,30.07,29.96,6,1,0,0.00
2013-3-29,46.6,39.5,30.9,33.3,26.7,13.6,83,61,38,30.10,30.04,5,1,0,0.00
2013-3-30,48.7,34.9,20.5,20.6,13.5,2.5,82,46,16,30.16,30.07,7,1,0,0.00
2013-3-31,49.1,33.6,23.2,40.3,25.0,17.1,98,73,34,30.08,29.68,5,1,0,0.27
2013-4-1,43.9,32.8,17.4,39.0,27.0,3.7,98,81,44,29.75,29.45,10,2,0,0.44
2013-4-2,25.2,19.0,13.1,14.5,7.7,2.9,75,61,49,29.83,29.72,8,3,0,0.00
2013-4-3,34.7,24.1,16.9,14.2,9.4,5.1,62,53,39,30.17,29.83,8,3,0,0.00
2013-4-4,42.8,30.9,17.6,33.7,16.1,5.5,98,55,31,30.20,29.88,9,2,0,0.00
2013-4-5,38.1,31.4,20.5,34.8,23.5,7.3,98,75,47,30.04,29.79,6,2,0,0.30
2013-4-6,35.1,24.6,13.1,14.7,5.6,-3.4,68,46,19,30.30,30.05,5,2,0,0.00
2013-4-7,41.5,33.7,26.4,39.8,25.2,10.8,98,73,51,30.23,29.68,4,1,0,0.22
2013-4-8,46.8,38.0,33.6,36.0,30.8,28.3,98,77,49,30.18,29.87,5,1,0,0.01
2013-4-9,49.6,39.4,32.7,40.8,36.5,28.6,98,90,66,30.05,29.85,8,2,0,0.25
2013-4-10,51.3,41.0,34.5,38.3,29.4,17.4,98,67,39,30.06,29.95,6,1,0,0.00
2013-4-11,36.7,30.5,22.1,17.1,10.9,6.9,63,44,29,30.26,30.03,7,3,0,0.00
2013-4-12,28.6,27.2,24.1,28.1,20.4,8.3,98,79,43,30.26,29.79,13,7,0,0.00
2013-4-13,46.0,34.8,28.2,45.5,34.3,-33.9,98,98,98,29.85,29.72,7,2,0,0.54
2013-4-14,43.5,38.2,29.5,39.8,32.9,27.4,98,83,54,30.23,29.84,5,1,0,0.04
2013-4-15,49.1,38.5,23.7,33.7,29.8,23.2,98,74,47,30.37,30.19,8,2,0,0.00
2013-4-16,48.4,40.6,34.5,47.8,39.1,30.9,98,95,69,30.18,29.86,5,1,0,0.79
2013-4-17,53.6,40.5,30.6,50.6,21.9,-21.0,99,54,4,30.41,30.10,6,2,0,0.00
2013-4-18,43.7,36.7,29.8,43.2,28.8,12.9,98,76,40,30.44,29.79,5,1,0,0.14
2013-4-19,61.2,49.9,39.7,59.2,49.1,39.2,98,97,83,29.80,29.39,5,1,0,0.80
2013-4-20,41.4,35.7,26.4,39.0,29.7,14.3,98,80,50,30.27,29.59,7,3,0,0.18
2013-4-21,42.3,30.4,20.3,17.4,10.3,0.6,74,46,18,30.73,30.27,6,1,0,0.00
2013-4-22,52.9,36.6,18.0,23.0,17.6,13.0,98,53,21,30.74,30.52,8,2,0,0.00
2013-4-23,53.1,42.0,28.8,36.8,24.5,9.8,84,54,18,30.52,30.12,8,2,0,0.00
2013-4-24,64.4,46.3,30.7,46.2,37.2,30.2,98,75,40,30.13,29.66,6,1,0,0.00
2013-4-25,52.0,35.0,31.3,46.7,27.4,24.3,85,74,57,30.33,30.27,0,0,0,0.00
2013-4-26,50.2,38.0,29.1,36.9,31.4,25.6,98,78,57,30.50,30.32,6,1,0,0.00
2013-4-27,59.2,42.0,27.3,37.2,31.5,26.8,98,72,35,30.50,30.34,6,1,0,0.00
2013-4-28,66.9,48.6,29.5,42.1,33.9,29.0,98,63,31,30.37,30.16,5,1,0,0.00
2013-4-29,67.3,51.2,36.3,49.9,41.0,33.4,98,71,40,30.20,30.13,6,1,0,0.00
2013-4-30,66.9,54.4,47.1,54.1,50.3,46.6,98,87,60,30.34,30.19,5,1,0,0.00
2013-5-1,76.6,59.5,40.1,52.5,46.2,39.6,98,67,32,30.48,30.34,9,1,0,0.00
2013-5-2,76.1,61.0,45.3,54.5,48.1,44.3,98,66,35,30.51,30.43,7,2,0,0.00
2013-5-3,68.7,57.7,47.8,45.9,37.8,30.0,72,51,24,30.54,30.40,9,3,0,0.00
2013-5-4,77.2,59.6,39.6,46.4,37.2,27.8,98,53,17,30.41,30.26,7,1,0,0.00
2013-5-5,81.3,62.4,40.6,81.0,37.2,-7.3,99,53,3,30.28,30.15,5,1,0,0.00
2013-5-6,81.7,63.9,44.6,47.8,37.6,-16.8,98,50,2,30.20,30.08,7,1,0,0.00
2013-5-7,84.0,65.8,46.4,83.7,49.2,-16.6,99,64,2,30.15,30.07,5,1,0,0.00
2013-5-8,82.2,66.1,46.4,79.4,44.0,30.5,99,53,18,30.18,30.05,6,1,0,0.00
2013-5-9,76.5,63.4,58.3,62.3,58.4,52.8,98,86,45,30.07,29.91,7,1,0,0.01
2013-5-10,64.0,54.8,46.2,57.5,46.1,39.1,98,75,49,30.07,29.84,8,2,0,0.33
2013-5-11,56.3,49.6,46.6,55.7,49.1,46.0,98,98,98,29.83,29.62,5,0,0,0.35
2013-5-12,52.9,45.2,33.8,46.9,40.2,29.7,98,86,45,29.71,29.61,9,2,0,0.13
2013-5-13,45.9,37.9,32.0,39.4,33.0,27.4,98,84,58,30.05,29.65,7,2,0,0.13
2013-5-14,57.6,43.2,28.4,34.1,26.2,15.8,98,58,20,30.13,30.01,5,1,0,0.00
2013-5-15,57.2,45.3,32.2,47.7,37.6,25.9,98,79,34,30.04,29.56,7,1,0,0.07
2013-5-16,54.0,47.4,41.5,50.2,43.6,38.8,98,87,68,29.95,29.58,6,1,0,0.01
2013-5-17,67.8,53.5,40.6,47.7,40.8,27.8,98,68,23,30.27,29.95,6,1,0,0.00
2013-5-18,70.5,56.2,40.1,49.3,39.3,29.6,98,61,24,30.35,30.27,6,1,0,0.00
2013-5-19,62.8,53.0,41.9,57.7,48.0,41.4,98,85,60,30.32,30.07,4,1,0,0.06
2013-5-20,70.5,61.4,55.0,60.4,54.8,49.1,98,81,47,30.07,30.00,4,1,0,0.18
2013-5-21,62.4,55.9,52.7,57.4,53.1,49.4,98,91,64,30.07,29.87,5,2,0,0.34
2013-5-22,64.9,56.9,52.2,61.2,55.9,51.6,98,96,81,29.90,29.70,4,1,0,0.26
2013-5-23,66.7,61.4,47.7,66.2,60.8,47.1,98,98,98,29.85,29.70,7,0,0,0.71
2013-5-24,51.3,45.4,40.3,46.8,39.2,34.6,98,81,53,30.14,29.85,7,2,0,0.27
2013-5-25,51.4,46.6,42.6,42.8,33.1,28.1,98,60,42,30.16,30.08,8,4,0,0.00
2013-5-26,58.5,46.7,40.1,43.4,38.3,28.9,98,77,33,30.10,30.00,6,2,0,0.18
2013-5-27,66.7,53.5,41.5,42.1,30.2,18.1,98,46,17,30.21,30.09,5,1,0,0.00
2013-5-28,69.4,56.3,38.1,46.1,37.9,29.0,98,57,23,30.25,30.11,4,0,0,0.00
2013-5-29,59.5,56.5,54.5,59.0,53.2,42.9,98,90,58,30.11,29.91,3,0,0,0.42
2013-5-30,77.0,66.1,57.4,66.2,61.2,56.8,98,86,58,30.12,29.97,4,0,0,0.01
2013-5-31,85.3,73.6,63.0,76.0,66.4,61.6,98,80,57,30.08,29.92,4,1,0,0.06
2013-6-1,78.6,70.8,65.7,72.1,67.0,61.9,98,88,69,29.96,29.79,5,1,0,0.05
2013-6-2,72.5,66.2,58.6,71.6,65.6,58.1,98,98,92,29.81,29.62,4,1,0,0.74
2013-6-3,59.9,55.6,51.8,57.9,50.1,44.2,98,83,56,29.88,29.75,4,1,0,0.00
2013-6-4,59.7,51.6,44.4,46.8,41.7,39.3,87,70,51,30.18,29.85,6,2,0,0.00
2013-6-5,64.2,52.5,39.2,43.8,39.4,34.2,98,65,35,30.29,30.18,5,0,0,0.00
2013-6-6,49.5,48.6,47.7,41.3,40.5,38.9,77,74,69,30.24,30.22,0,0,0,0.00
2013-6-10,76.3,69.4,63.0,56.3,50.2,42.1,79,52,34,30.16,30.01,5,1,0,0.00
2013-6-11,62.4,55.2,53.1,60.8,54.6,52.5,98,98,82,30.01,29.74,7,3,0,1.45
2013-6-12,71.8,57.7,52.0,63.8,55.2,51.4,98,92,60,29.92,29.82,4,0,0,0.33
2013-6-13,71.2,59.8,47.7,59.3,51.4,46.2,98,77,44,30.07,29.77,5,1,0,0.01
2013-6-14,76.6,63.6,53.8,56.3,47.8,28.4,98,62,23,29.94,29.77,6,1,0,0.00
2013-6-15,72.3,60.7,46.6,50.4,44.9,40.4,98,60,32,30.00,29.89,5,1,0,0.00
2013-6-16,57.9,53.6,50.4,54.5,51.7,47.3,98,94,70,29.92,29.77,2,0,0,0.39
2013-6-17,60.3,55.0,47.3,57.5,52.9,46.8,98,93,74,30.00,29.77,4,1,0,0.02
2013-6-18,67.8,55.2,44.2,53.0,43.7,34.8,98,70,40,30.09,29.98,5,1,0,0.00
2013-6-19,68.4,55.3,40.1,50.3,42.1,38.0,98,65,36,30.22,30.09,4,0,0,0.00
2013-6-20,74.1,59.5,45.1,53.9,47.2,42.9,98,69,36,30.29,30.22,5,1,0,0.00
2013-6-21,80.1,65.4,53.8,63.8,55.8,50.0,98,74,42,30.31,30.24,4,0,0,0.00
2013-6-22,62.8,61.2,59.9,62.2,60.6,59.3,98,98,98,30.26,30.15,2,0,0,0.66
2013-6-23,70.9,65.5,61.0,70.3,64.9,60.4,98,98,98,30.17,30.01,1,0,0,0.02
2013-6-24,82.4,70.9,64.9,77.0,69.0,63.3,98,94,61,30.02,29.89,3,0,0,0.01
2013-6-25,81.1,72.0,66.9,77.5,69.3,65.8,98,92,63,29.91,29.76,3,0,0,0.00
2013-6-26,72.9,65.5,60.8,71.0,64.9,60.2,98,98,92,29.84,29.77,4,0,0,0.00
2013-6-27,77.9,66.9,57.4,68.8,63.0,56.6,98,89,50,29.87,29.81,4,1,0,0.00
2013-6-28,57.2,55.7,54.7,56.6,55.2,54.1,98,98,98,29.86,29.52,5,2,0,1.91
2013-6-29,68.2,60.7,55.2,67.0,60.1,54.7,98,98,90,29.71,29.53,4,0,0,0.14
2013-6-30,69.3,62.7,57.2,62.7,59.4,56.6,98,90,71,30.11,29.71,3,0,0,0.00
2013-7-1,73.2,63.7,55.9,58.9,54.0,45.7,98,73,45,30.22,30.04,3,0,0,0.00
2013-7-2,66.0,61.9,59.5,61.8,53.4,42.7,98,75,51,30.24,30.19,5,2,0,0.00
2013-7-3,76.5,67.4,60.1,70.6,64.5,59.5,98,91,70,30.23,30.18,3,0,0,0.00
2013-7-4,83.5,71.2,61.0,75.5,67.8,60.4,98,90,61,30.23,30.10,4,0,0,0.61
2013-7-5,79.5,72.5,67.8,76.7,71.1,67.2,98,96,74,30.17,30.08,3,0,0,0.01
2013-7-6,83.1,73.7,67.6,72.4,68.3,65.9,98,85,57,30.12,30.02,6,1,0,0.00
2013-7-7,82.0,72.3,66.0,72.3,67.7,65.2,98,87,61,30.05,29.99,3,0,0,0.04
2013-7-8,75.0,67.8,62.1,66.5,61.3,54.9,98,81,56,30.14,30.03,3,0,0,0.00
2013-7-9,81.7,71.3,61.0,71.9,64.1,60.0,98,80,57,30.16,30.01,4,0,0,0.00
2013-7-10,74.3,70.0,66.6,73.7,69.5,66.0,98,98,98,30.01,29.67,4,1,0,1.12
2013-7-11,72.9,65.8,56.5,66.0,59.2,54.9,98,81,57,30.14,29.74,5,1,0,0.00
2013-7-12,75.7,61.2,51.3,59.2,53.2,50.7,98,79,43,30.30,30.14,4,0,0,0.00
2013-7-13,85.8,68.3,52.9,69.9,58.6,52.3,98,76,38,30.38,30.30,4,0,0,0.00
2013-7-14,89.2,73.2,60.6,72.8,63.4,56.0,98,76,37,30.39,30.28,3,0,0,0.00
2013-7-15,88.7,76.1,64.9,72.4,64.8,59.0,98,72,44,30.29,30.24,4,0,0,0.00
2013-7-16,87.6,76.1,65.8,74.8,67.3,64.2,98,77,47,30.33,30.24,3,0,0,0.00
2013-7-17,90.0,78.6,70.3,79.4,72.3,69.7,98,83,54,30.24,30.02,4,1,0,0.00
2013-7-29,55.9,55.8,55.6,55.4,55.2,55.0,98,98,98,30.12,30.11,0,0,0,0.00
2013-7-30,73.2,61.8,53.6,62.0,57.1,53.0,98,86,58,30.17,30.11,4,0,0,0.00
2013-7-31,79.2,66.4,57.2,63.3,59.7,56.6,98,81,52,30.16,30.05,3,0,0,0.00
2013-8-1,72.0,64.2,59.4,68.8,62.9,58.8,98,96,77,30.06,29.80,3,0,0,0.72
2013-8-2,73.4,63.1,59.0,66.6,61.4,58.2,98,95,63,29.84,29.80,4,0,0,0.04
2013-8-3,69.6,62.2,56.3,63.1,59.0,55.7,98,90,70,29.87,29.78,3,0,0,0.00
2013-8-4,66.0,58.4,52.0,61.5,55.6,48.8,98,91,68,30.01,29.84,5,1,0,0.00
2013-8-5,71.1,57.6,47.3,57.0,48.3,42.9,98,74,43,30.09,30.00,5,1,0,0.00
2013-8-6,73.4,61.8,52.5,64.5,55.9,52.0,98,83,50,30.16,30.08,5,0,0,0.00
2013-8-7,75.4,63.7,52.2,69.4,59.8,51.6,98,88,61,30.15,29.97,5,0,0,0.20
2013-8-8,79.2,68.7,63.3,71.4,65.2,62.7,98,90,62,30.03,29.94,4,0,0,0.83
2013-8-9,77.5,67.7,61.2,68.7,64.1,60.6,98,89,62,30.01,29.81,2,0,0,0.00
2013-8-10,69.6,61.0,54.5,60.8,52.3,48.3,98,75,49,30.07,29.81,6,1,0,0.00
2013-8-11,74.5,63.0,51.8,59.7,54.9,51.3,98,78,51,30.09,30.01,4,1,0,0.00
2013-8-12,76.3,63.8,55.8,62.1,57.8,26.6,99,84,26,30.03,29.92,4,0,0,0.46
2013-8-13,68.2,61.7,56.8,67.2,59.2,-28.9,99,94,2,29.91,29.72,5,0,0,1.31
2013-8-14,62.8,56.6,51.1,56.7,53.4,48.0,99,90,70,29.99,29.72,6,1,0,0.35
2013-8-15,71.1,58.9,48.7,61.1,54.4,48.1,98,86,59,30.10,29.98,4,1,0,0.04
2013-8-16,75.2,60.7,52.0,60.1,54.3,49.5,98,81,48,30.30,30.08,3,0,0,0.00
2013-8-17,79.9,59.8,46.2,56.9,51.6,45.7,98,78,37,30.39,30.30,3,0,0,0.00
2013-8-18,82.8,65.3,52.5,61.8,56.7,52.0,98,77,43,30.33,30.10,4,1,0,0.00
2013-8-19,79.7,65.3,58.5,64.0,59.0,56.1,93,81,55,30.10,30.01,3,0,0,0.00
2013-8-20,86.4,70.2,60.4,66.1,62.4,58.3,98,78,49,30.11,30.02,4,0,0,0.00
2013-8-21,88.0,72.4,61.7,69.7,65.9,61.1,98,82,50,30.15,29.99,4,0,0,0.00
2013-8-22,68.9,66.4,59.4,68.3,65.4,58.8,98,96,89,30.00,29.86,4,0,0,0.85
2013-8-23,75.7,60.0,52.3,58.6,52.9,49.1,98,80,42,30.28,29.97,4,1,0,0.00
2013-8-24,81.9,59.3,46.4,55.8,51.0,45.9,98,78,33,30.41,30.28,3,0,0,0.00
2013-8-25,78.6,62.1,50.0,61.4,56.0,49.5,98,83,51,30.41,30.12,4,1,0,0.53
2013-8-26,70.3,65.0,59.0,69.0,63.9,58.4,98,96,88,30.11,29.94,0,0,0,0.14
2013-8-27,81.3,69.0,64.0,70.7,66.4,63.5,98,92,68,29.98,29.93,4,0,0,0.00
2013-8-28,83.5,69.5,62.2,72.1,67.3,61.7,98,93,63,30.10,29.94,3,0,0,0.29
2013-8-29,62.1,61.5,61.0,61.5,60.9,60.4,98,98,98,30.09,30.08,3,0,0,0.00
2013-8-30,61.0,61.0,61.0,60.4,60.4,60.4,98,98,98,30.08,30.08,3,3,0,0.00
2013-8-31,68.2,64.3,61.0,67.6,63.7,60.4,98,98,91,30.08,29.84,3,1,0,0.00
2013-9-1,72.9,65.3,58.1,63.8,61.1,57.5,98,87,67,29.98,29.89,3,0,0,0.00
2013-9-2,64.4,61.1,58.1,63.8,60.1,56.8,98,97,84,29.92,29.71,3,0,0,0.43
2013-9-3,65.5,60.6,57.4,62.7,59.4,56.3,98,96,84,29.81,29.72,5,1,0,0.19
2013-9-4,61.3,55.8,49.1,58.3,52.5,44.5,98,89,66,29.98,29.81,4,0,0,0.07
2013-9-5,58.3,50.2,41.0,47.5,41.0,36.4,98,73,49,30.22,29.97,5,1,0,0.01
2013-9-6,66.0,51.9,39.6,50.5,44.3,39.0,98,78,47,30.26,30.02,4,1,0,0.00
2013-9-7,63.7,58.7,54.7,59.3,55.0,50.2,98,88,77,30.02,29.85,4,1,0,0.00
2013-9-8,59.9,51.8,42.4,57.7,42.5,37.5,98,72,49,30.13,29.86,5,2,0,0.00
2013-9-9,65.5,52.3,39.2,55.1,47.0,38.7,98,83,59,30.18,30.05,5,0,0,0.00
2013-9-10,58.3,55.5,52.0,57.7,54.7,48.2,98,97,82,30.07,29.98,0,0,0,0.38
2013-9-11,74.5,66.2,58.5,73.9,65.5,57.9,98,98,90,30.01,29.95,3,0,0,0.02
2013-9-12,70.2,64.1,59.0,69.6,63.3,58.4,98,97,89,29.96,29.67,2,0,0,0.43
2013-9-13,58.6,52.3,48.9,58.1,51.2,47.2,98,96,89,29.95,29.70,5,1,0,0.18
2013-9-14,56.8,50.0,43.3,50.6,47.3,42.8,98,91,78,30.08,29.93,2,0,0,0.05
2013-9-15,62.1,51.8,41.2,56.0,49.4,40.7,98,92,77,30.09,30.01,4,0,0,0.00
2013-9-16,53.6,45.7,39.6,53.0,40.1,34.6,98,82,53,30.40,30.01,5,1,0,0.12
2013-9-17,62.2,48.2,36.1,47.9,41.3,35.6,98,80,48,30.51,30.32,3,0,0,0.05
2013-9-18,68.4,54.1,43.9,50.6,46.4,43.4,98,78,45,30.32,30.15,4,0,0,0.00
2013-9-19,74.1,58.2,44.8,58.4,52.1,44.2,98,83,48,30.17,30.08,3,0,0,0.00
2013-9-20,75.0,62.8,52.2,61.3,57.1,51.6,98,84,56,30.10,29.88,6,1,0,0.00
2013-9-21,63.0,60.0,57.6,60.6,58.3,56.4,98,94,85,29.88,29.60,3,0,0,1.68
2013-9-22,57.6,49.9,42.3,57.0,47.0,38.7,98,90,73,29.95,29.57,7,2,0,0.40
2013-9-23,51.4,45.1,38.5,41.8,38.9,36.5,98,79,66,30.12,29.95,6,1,0,0.00
2013-9-24,64.0,50.5,39.7,46.3,40.8,38.0,98,72,45,30.10,29.95,5,1,0,0.00
2013-9-25,66.2,55.0,41.9,52.0,48.5,41.4,98,80,58,30.09,29.99,4,0,0,0.00
2013-9-26,61.7,50.5,40.5,52.9,46.5,39.9,98,87,62,30.26,30.10,3,0,0,0.00
2013-9-27,66.4,53.0,42.8,54.1,48.6,42.3,98,87,59,30.36,30.26,3,0,0,0.00
2013-9-28,73.9,55.9,44.4,56.5,49.6,43.9,98,83,48,30.43,30.28,4,0,0,0.00
2013-9-29,70.7,55.1,43.3,55.6,49.0,42.8,98,83,51,30.29,30.10,6,1,0,0.00
2013-9-30,72.1,56.9,45.5,56.8,51.5,45.0,98,84,52,30.12,30.03,5,0,0,0.00
2013-10-1,73.4,60.5,51.3,61.8,55.8,50.7,98,86,62,30.04,29.88,4,0,0,0.00
2013-10-2,75.9,63.3,55.6,60.8,49.3,38.9,98,66,29,30.01,29.83,6,1,0,0.00
2013-10-3,71.2,57.4,45.1,49.5,45.7,41.5,98,69,36,30.16,30.01,3,0,0,0.00
2013-10-4,60.4,55.9,51.3,49.4,46.8,44.2,92,72,57,30.20,30.11,3,0,0,0.00
2013-10-5,63.3,54.3,49.1,49.2,42.6,37.8,94,67,39,30.25,30.16,4,0,0,0.00
2013-10-6,55.2,48.8,42.8,50.9,40.4,33.7,98,75,45,30.25,29.93,10,3,0,0.81
2013-10-7,63.9,54.5,46.4,63.3,54.0,45.9,98,98,98,29.93,29.57,5,2,0,0.05
2013-10-8,57.2,46.6,38.7,44.4,40.1,37.4,98,80,50,30.42,29.82,9,1,0,0.00
2013-10-9,64.4,47.1,34.0,47.6,39.7,33.5,98,80,37,30.50,30.36,4,0,0,0.00
2013-10-10,73.8,52.4,38.3,49.4,43.7,37.8,98,77,35,30.36,30.25,3,0,0,0.00
2013-10-11,75.9,54.7,39.7,52.5,46.6,39.2,98,79,40,30.26,30.21,4,0,0,0.00
2013-10-12,69.4,55.7,46.2,54.6,50.3,45.7,98,84,52,30.37,30.26,5,1,0,0.00
2013-10-13,66.2,54.6,46.8,54.8,51.0,46.2,98,89,62,30.42,30.31,5,1,0,0.00
2013-10-14,66.9,56.2,47.3,61.3,53.3,46.8,98,91,61,30.34,30.25,4,0,0,0.19
2013-10-15,57.4,49.5,40.6,51.3,47.3,40.1,98,93,77,30.35,30.11,5,1,0,0.00
2013-10-16,58.1,54.3,50.0,57.5,53.7,49.5,98,98,98,30.10,29.77,4,0,0,0.14
2013-10-17,57.2,52.9,48.4,54.7,51.3,47.8,98,94,81,29.82,29.73,4,1,0,0.30
2013-10-18,56.1,48.6,42.1,52.8,47.4,41.6,98,96,69,29.84,29.67,5,0,0,0.30
2013-10-19,52.3,45.8,37.8,51.1,44.9,37.2,98,97,86,29.89,29.60,3,0,0,0.07
2013-10-20,48.7,43.4,35.6,46.6,39.1,33.2,98,85,64,29.99,29.54,6,2,0,0.31
2013-10-21,45.0,38.8,30.4,44.4,38.0,29.9,98,97,85,30.04,29.81,3,0,0,0.02
2013-10-22,49.5,43.8,36.0,46.2,38.9,29.4,98,84,54,29.80,29.65,6,2,0,0.33
2013-10-23,46.2,36.3,29.3,34.7,30.4,25.6,98,80,54,29.71,29.63,8,1,0,0.00
2013-10-24,39.7,33.3,28.0,35.5,29.3,22.4,98,85,72,29.85,29.64,5,1,0,0.01
2013-10-25,41.0,34.4,30.2,32.4,28.6,25.6,98,80,61,30.09,29.85,6,1,0,0.00
2013-10-28,27.3,26.9,26.4,22.6,22.4,22.3,84,83,82,30.41,30.40,0,0,0,0.00
2013-10-29,37.9,28.7,21.9,24.3,21.8,19.9,98,77,50,30.48,30.33,5,1,0,0.00
2013-10-30,42.4,31.1,23.5,29.0,24.7,20.3,98,79,51,30.32,30.16,5,1,0,0.00
2013-10-31,54.1,38.4,27.1,53.6,37.8,25.7,98,98,93,30.18,29.51,4,0,0,1.30
2013-11-1,58.1,53.3,45.3,57.5,52.4,44.8,98,97,79,29.51,29.09,9,4,0,1.75
2013-11-3,36.1,29.7,22.5,19.1,15.4,11.9,86,56,37,30.55,30.26,5,1,0,0.00
2013-11-4,37.0,28.2,19.6,22.2,17.2,13.8,98,66,39,30.74,30.56,5,1,0,0.00
2013-11-5,45.5,35.3,27.7,31.5,24.1,17.2,83,64,43,30.64,30.38,6,0,0,0.00
2013-11-6,54.0,43.8,34.5,48.6,39.4,31.1,98,86,60,30.38,29.70,6,1,0,0.07
2013-11-7,52.0,40.6,32.2,51.4,35.8,25.4,98,83,64,29.85,29.62,7,2,0,0.30
2013-11-8,36.3,32.0,29.1,27.1,25.6,23.9,90,77,68,30.07,29.80,7,2,0,0.00
2013-11-9,36.0,31.9,28.8,29.5,24.4,21.5,98,74,58,30.16,29.89,5,1,0,0.00
2013-11-10,35.8,32.7,30.0,35.3,32.2,29.5,98,98,92,29.88,29.66,5,0,0,0.08
2013-11-11,32.7,29.2,19.6,31.9,26.8,15.5,98,91,75,30.05,29.75,6,1,0,0.01
2013-11-12,28.8,21.4,16.3,18.7,15.4,11.6,90,77,62,30.24,29.94,8,2,0,0.00
2013-11-13,28.0,20.9,10.8,22.7,15.1,8.2,98,79,57,30.27,29.90,6,2,0,0.00
2013-11-14,36.5,32.3,28.4,31.0,27.0,23.0,98,81,71,29.97,29.86,5,2,0,0.05
2013-11-15,42.3,36.0,29.1,34.4,32.2,28.6,98,86,69,30.14,29.95,3,0,0,0.20
2013-11-16,51.4,37.6,29.5,36.7,32.8,29.0,98,85,53,30.27,30.13,4,0,0,0.00
2013-11-17,50.7,38.8,28.0,50.2,38.0,27.5,98,97,83,30.23,29.57,5,1,0,0.54
2013-11-18,52.3,42.2,28.9,51.8,39.7,21.7,98,91,71,29.58,29.26,8,4,0,0.54
2013-11-19,28.8,26.2,23.0,24.1,17.8,13.4,90,70,62,30.38,29.58,9,3,0,0.00
2013-11-20,33.1,23.8,16.9,19.6,15.8,12.8,98,73,49,30.64,30.39,4,0,0,0.00
2013-11-21,35.4,26.2,16.3,25.2,19.7,15.0,98,79,43,30.63,30.34,3,0,0,0.00
2013-11-22,35.2,31.7,28.9,34.7,30.1,23.2,98,94,75,30.34,29.78,4,0,0,0.00
2013-11-23,28.8,20.7,13.5,28.3,17.8,7.8,98,89,77,29.96,29.80,8,2,0,0.00
2013-11-24,17.4,10.5,3.9,10.5,2.8,-3.3,89,72,51,30.20,29.85,8,3,0,0.00
2013-11-25,23.9,11.1,1.0,23.4,5.6,-3.4,98,79,57,30.31,30.02,6,1,0,0.00
2013-11-26,31.3,29.2,23.9,30.2,28.4,23.4,98,97,89,30.15,29.95,4,0,0,0.00
2013-11-27,34.3,27.9,18.0,33.8,27.2,14.6,98,97,85,29.95,29.39,7,1,0,0.00
2013-11-28,17.4,12.7,6.3,14.5,7.4,2.5,91,79,66,30.39,29.50,8,2,0,0.00
2013-11-29,21.7,7.8,-4.4,9.5,2.5,-8.7,96,80,50,30.74,30.39,4,0,0,0.00
2013-11-30,15.8,3.8,-10.7,12.3,0.4,-16.1,98,86,76,30.76,30.25,4,0,0,0.00
2013-12-1,26.6,21.6,10.9,25.4,20.8,10.5,98,97,85,30.24,30.07,3,0,0,0.00
2013-12-2,29.1,26.6,24.8,28.6,26.2,24.3,98,98,98,30.07,29.91,4,1,0,0.00
2013-12-3,33.4,28.9,26.4,32.9,28.4,25.9,98,98,96,30.01,29.91,0,0,0,0.00
2013-12-4,35.1,27.1,16.3,32.8,25.4,15.9,98,94,71,30.17,30.01,4,0,0,0.00
2013-12-5,43.2,31.7,26.4,42.6,31.2,25.9,98,98,96,30.14,29.73,6,2,0,0.35
2013-12-6,35.4,34.0,32.4,33.9,31.3,30.3,97,90,86,29.91,29.85,4,1,0,0.01
2013-12-7,32.4,10.9,8.6,6.5,5.7,4.6,86,79,75,30.43,29.91,0,0,0,0.00
2013-12-8,23.2,11.5,-0.2,9.5,5.5,-3.6,98,78,49,30.55,30.43,4,0,0,0.00
2013-12-9,28.2,19.5,12.7,27.7,17.7,8.6,98,93,71,30.44,29.72,6,2,0,0.00
2013-12-10,27.1,18.1,9.3,26.7,10.8,0.0,98,75,44,29.85,29.71,7,2,0,0.00
2013-12-11,18.3,9.9,-2.7,12.9,6.3,-10.4,98,86,63,30.14,29.85,5,1,0,0.00
2013-12-12,10.6,-2.1,-17.7,6.0,-8.6,-23.9,98,74,48,30.22,29.79,5,0,0,0.00
2013-12-13,8.1,4.0,-0.4,6.0,-4.2,-14.0,98,70,43,30.41,29.77,6,2,0,0.00
2013-12-14,2.5,-13.1,-27.2,-7.8,-21.9,-35.0,81,64,50,30.59,30.14,7,2,0,0.00
2013-12-15,11.5,4.8,-2.9,8.9,2.2,-7.3,98,89,81,30.12,29.56,8,2,0,0.00
2013-12-16,2.7,-5.0,-12.1,-1.1,-10.4,-17.6,88,77,66,30.17,29.63,4,0,0,0.00
2013-12-17,1.4,-11.2,-25.8,-5.8,-17.3,-33.6,82,73,64,30.18,29.97,5,1,0,0.00
2013-12-18,23.4,8.0,-5.8,20.6,5.3,-10.3,98,89,73,29.97,29.87,2,0,0,0.00
2013-12-19,27.0,19.9,12.4,26.5,19.4,11.9,98,98,91,30.06,29.82,2,0,0,0.00
2013-12-20,24.3,19.5,15.4,23.1,18.9,15.0,98,98,91,30.06,29.91,5,2,0,0.00
2013-12-21,20.5,17.7,15.3,20.0,17.1,14.8,98,98,90,30.06,29.82,5,2,0,0.00
2013-12-22,17.6,15.4,13.1,17.1,15.0,12.6,98,98,98,30.05,29.78,8,1,0,0.00
2013-12-23,21.7,15.6,9.3,21.3,15.0,6.9,98,97,88,30.16,29.97,0,0,0,0.00
2013-12-24,12.6,3.0,-4.4,7.1,-1.7,-8.9,92,81,66,30.30,30.14,0,0,0,0.00
2013-12-25,12.9,-4.1,-14.1,2.7,-10.0,-19.7,83,75,58,30.49,30.31,0,0,0,0.00
2013-12-26,20.3,9.2,-0.2,15.7,6.4,-4.4,98,89,76,30.30,30.05,0,0,0,0.00
2013-12-27,26.6,15.1,6.4,21.6,13.4,6.0,98,93,70,30.15,30.03,0,0,0,0.00
2013-12-28,31.1,26.8,10.0,30.6,26.3,9.6,98,98,98,30.02,29.86,0,0,0,0.00
2013-12-29,30.9,17.4,10.9,30.4,16.9,10.5,98,98,98,29.95,29.55,0,0,0,0.00
2013-12-30,16.5,-0.1,-15.7,16.1,-5.4,-22.5,98,78,58,30.17,29.55,0,0,0,0.00
2013-12-31,-0.8,-6.3,-12.5,-6.7,-11.5,-17.8,87,78,70,30.15,29.94,0,0,0,0.00
2014-1-1,0.3,-11.2,-24.2,-10.6,-19.1,-31.8,86,68,49,30.45,30.05,0,0,0,0.00
2014-1-2,-10.5,-17.7,-28.3,-21.5,-28.7,-36.0,67,56,45,30.45,30.11,0,0,0,0.00